AirNav   Pilot Hours Calculator
 
 880 users online  

TE43 Parkland Health & Hospital System Heliport
Dallas, Texas, USA

GOING TO DALLAS?


FAA INFORMATION EFFECTIVE 07 NOVEMBER 2019

Location

FAA Identifier: TE43
Lat/Long: 32-48-35.1400N 096-50-22.2000W
32-48.585667N 096-50.370000W
32.8097611,-96.8395000
(estimated)
Elevation: 486 ft. / 148 m (estimated)
Variation: 04E (2010)
Time zone: UTC -6 (UTC -5 during Daylight Saving Time)
Zip code: 75440

Heliport Operations

Heliport use: Private use, MEDICAL.
Activation date: 03/1988
Control tower: no
ARTCC: FORT WORTH CENTER
FSS: FORT WORTH FLIGHT SERVICE STATION
NOTAMs facility: FDC (NOTAM-D service not available)
Attendance: CONTINUOUS
Wind indicator: yes
Segmented circle: no
Lights: FOR PERI LGTS RY H4 CALL 214-590-8848.
Beacon: white-green-yellow (heliport)
FOR ROTG BCN CALL 214-590-5505.

Heliport Communications

WX ASOS at DAL (2.2 nm N): PHONE 214-353-1551
WX AWOS-3 at 49T (3 nm SE): 135.425 (214-670-1243)
WX ASOS at RBD (8 nm S): PHONE 214-330-5317
WX AWOS-3 at ADS (10 nm N): PHONE 972-386-4855
WX ASOS at DFW (11 nm NW): PHONE 972-615-2608
WX AWOS-3P at GPM (12 nm SW): 118.475 (972-606-1433)
WX AWOS-3 at LNC (15 nm SE): 118.975 (972-227-0471)
WX ASOS at GKY (16 nm SW): 127.375 (817-557-0251)
WX AWOS-3 at HQZ (16 nm E): 118.175 (972-222-7631)

Nearby radio navigation aids

VOR radial/distance  VOR name  Freq  Var
CVEr140/5.8COWBOY VOR/DME116.2006E
TTTr103/10.7MAVERICK VOR/DME113.1006E
FUZr100/17.8RANGER VORTAC115.7006E

 
NDB name  Hdg/Dist  Freq  Var  ID
MESQUITE267/15.724803EPQF .--. --.- ..-.
TRAVIS270/29.926006EAVZ .- ...- --..
CADDO MILLS239/32.831606EMII -- .. ..

Heliport Services

Runway Information

Helipad H3

Dimensions: 60 x 60 ft. / 18 x 18 m
Surface: concrete
Runway edge lights: PERI
Latitude: 32-48.585667N
Longitude: 096-50.370000W
Elevation: 486.0 ft.
Traffic pattern: leftleft

Helipad H4

Dimensions: 56 x 56 ft. / 17 x 17 m
Surface: concrete
Runway edge lights: PERI
Latitude: 32-48.585667N
Longitude: 096-50.370000W
Elevation: 486.0 ft.
Traffic pattern: leftleft

Helipad H1

Dimensions: 60 x 60 ft. / 18 x 18 m
Surface: mats, in good condition
Runway edge lights: PERI
Latitude: 32-48.585667N
Longitude: 096-50.370000W
Elevation: 486.0 ft.
Traffic pattern: leftleft
Markings: none, in good condition

Helipad H2

Dimensions: 60 x 60 ft. / 18 x 18 m
Surface: mats, in good condition
Runway edge lights: PERI
Latitude: 32-48.585667N
Longitude: 096-50.370000W
Elevation: 486.0 ft.
Traffic pattern: leftleft
Markings: none, in good condition

Heliport Ownership and Management from official FAA records

Ownership: Publicly-owned
Owner: DALLAS COUNTY HOSPITAL DIST
5200 HARRY HINES BLVD
DALLAS, TX 75235
Phone (214) 590-0400
Manager: JERRY NICKERSON
5200 HARRY HINES BLVD
DALLAS, TX 75235
Phone (214) 590-0400
DIR TRAUMA & DISASTER MGMT. ADDITIONAL CONTACT: JOHN WILSON 214-590-9663 JOHN.WILSON2@PHHS.ORG

Additional Remarks

A30A-H4 ROOFTOP.
A30A-H1 ROOFTOP.
A30A-H2 ROOFTOP.
A30A-H3 ROOFTOP.
HELIPAD H3 LCTD 1800 FT SW OF H1.
HELIPAD H4 LCTD 1300 FT WEST SOUTWEST OF H1.
HELIPAD H1 AND H2 22,000 GROSS WEIGHT.
FOR CD CTC REGIONAL APCH AT 972-615-2799.
A52-H4 BLDG LIT AND ONLIT NORTH, EAST AND WEST.
A52-H1 RDO TWRS (LGTD) SE & W OF PAD. BLDG LGTD 50FT WEST.
A52-H3 MARKED POWERLINES 125 FT WEST OF HELIPAD.

Instrument Procedures

There are no published instrument procedures at TE43.

Some nearby airports with instrument procedures:

KDAL - Dallas Love Field Airport (2 nm N)
KRBD - Dallas Executive Airport (8 nm S)
KADS - Addison Airport (10 nm N)
KDFW - Dallas-Fort Worth International Airport (11 nm NW)
KGPM - Grand Prairie Municipal Airport (12 nm SW)
KLNC - Lancaster Regional Airport (15 nm SE)
KGKY - Arlington Municipal Airport (16 nm SW)
KHQZ - Mesquite Metro Airport (16 nm E)
 
Loc | Ops | Rwys | IFR | FBO | Links
Com | Nav | Svcs | Stats | Notes
Area around TE43 (Parkland Health & Hospital System Heliport)
 
Road maps at: MapQuest Bing Google
 
Aerial photo
No photo
 
Sectional chart

 
Airport distance calculator
Flying to Parkland Health & Hospital System Heliport? Find the distance to fly.

From to TE43

Sunrise and sunset
Times for 18-Nov-2019
 Local
(UTC-6)
 Zulu
(UTC)
Morning civil twilight06:3512:35
Sunrise07:0113:01
Sunset17:2423:24
Evening civil twilight17:5023:50

Current date and time
Zulu (UTC)  18-Nov-2019 13:35:42
Local (UTC-6)  18-Nov-2019 07:35:42
 
METAR
KDAL 
2nm N 
181253Z 00000KT 10SM FEW250 05/03 A3001 RMK AO2 SLP159 T00500028 $
KRBD 
8nm S 
181253Z 22003KT 10SM CLR 07/02 A2999 RMK AO2 SLP154 T00720017
KADS 
9nm N 
181247Z 00000KT 7SM HZ SKC 05/02 A3001
KDFW 
10nm NW 
181253Z 00000KT 10SM FEW250 07/02 A2999 RMK AO2 SLP153 T00670017 $
KGPM 
12nm SW 
181315Z AUTO 00000KT 10SM CLR 06/02 A3003 RMK AO2 T00600017
KLNC 
15nm SE 
181315Z AUTO 00000KT 10SM CLR 03/01 A3002 RMK AO2 T00270011
KGKY 
16nm SW 
181253Z 00000KT 9SM CLR 02/00 A3001 RMK AO2 SLP159 T00220000
KHQZ 
16nm E 
181250Z 00000KT 10SM CLR 02/01 A3001
TAF
KDAL 
2nm N 
181122Z 1812/1912 23006KT P6SM FEW250
KDFW 
10nm NW 
181122Z 1812/1918 23006KT P6SM FEW250
KGKY 
16nm SW 
181122Z 1812/1912 23006KT P6SM FEW250
NOTAMs
Click for the latest NOTAMs
NOTAMs are issued by the DoD/FAA and will open in a separate window not controlled by AirNav.

 

 
 

Would you like to see your business listed on this page?

 If your business provides an interesting product or service to pilots, flight crews, aircraft, or users of the Parkland Health & Hospital System Heliport, you should consider listing it here.  To start the listing process, click on the button below
 
Add a business
 

Other Pages about Parkland Health & Hospital System Heliport

Update a link
 
Copyright © AirNav, LLC. All rights reserved. Privacy Policy  Contact